TGPY/GND METAR and TAF weather

Enter ICAO airport designator
Station Type Date Time Source
TGPY METAR 2020/01/29 03:00 UTC NOAA

TGPY 290300Z 09005KT 9999 FEW019 26/23 Q1014 NOSIG


Station Type Date Time Source
TGPY Decoded METAR 2020/01/29 03:00 UTC NOAA

Point Salines Airport, Grenada (TGPY) 12-00N 061-47W 7M
Jan 28, 2020 - 10:00 PM EST / 2020.01.29 0300 UTC
Wind: from the E (090 degrees) at 6 MPH (5 KT):0
Visibility: greater than 7 mile(s):0
Sky conditions: mostly clear
Temperature: 78 F (26 C)
Dew Point: 73 F (23 C)
Relative Humidity: 83%
Pressure (altimeter): 29.94 in. Hg (1014 hPa)
ob: TGPY 290300Z 09005KT 9999 FEW019 26/23 Q1014 NOSIG
cycle: 3

Station Type Date Time Source
TGPY TAF 2020/01/28 18:32 UTC NOAA

TAF TGPY 281600Z 2818/2918 11013KT 9999 FEW019
BECMG 2900/2902 08010KT SCT018

Example: see airport list